RJCB

Tokachi-Obihiro Airport

Obihiro, Japan
TAF RJCB 171116Z 1712/1818 31005KT 9999 FEW003 BKN015 TEMPO 1712/1721 1500 BR FEW001 BKN003 BECMG 1803/1806 16008KT BECMG 1809/1812 28005KT
Issued Valid From Valid To
Dec-17 @ 11:16 UTC
(2 hours ago)
Dec-17 @ 12:00 UTC
(an hour ago)
Dec-18 @ 18:00 UTC
(-1 days ago)
Dec-17 @ 12:00 to Dec-18 @ 03:00
TAF RJCB 171116Z 1712/1818 31005KT 9999 FEW003 BKN015
Wind Visibility Clouds
310° at 5 knots 10,000+ meters
  • Few at 300' AGL
  • Broken at 1,500' AGL
Temporary Dec-17 @ 12:00 to Dec-17 @ 21:00
TEMPO 1712/1721 1500 BR FEW001 BKN003
Visibility Clouds Conditions
1,497 meters
  • Few at 100' AGL
  • Broken at 300' AGL
  • Mist
Becoming Dec-18 @ 03:00 to Dec-18 @ 09:00
BECMG 1803/1806 16008KT
Wind Visibility Clouds
160° at 8 knots 10,000+ meters
  • Few at 300' AGL
  • Broken at 1,500' AGL
Becoming Dec-18 @ 09:00 to Dec-18 @ 18:00
BECMG 1809/1812 28005KT
Wind Visibility Clouds
280° at 5 knots 10,000+ meters
  • Few at 300' AGL
  • Broken at 1,500' AGL
TAF RJCB 171116Z 1712/1818 31005KT 9999 FEW003 BKN015 TEMPO 1712/1721 1500 BR FEW001 BKN003 BECMG 1803/1806 16008KT BECMG 1809/1812 28005KT
Issued Dec-17 @ 11:16 UTC
(2 hours ago)
Valid From Dec-17 @ 12:00 UTC
(an hour ago)
Valid To Dec-18 @ 18:00 UTC
(-1 days ago)
Dec-17 @ 12:00 - Dec-18 @ 03:00
Wind Visibility
310° at 5 knots 10,000+ meters
Clouds
  • Few at 300' AGL
  • Broken at 1,500' AGL
Temporary Dec-17 @ 12:00 - Dec-17 @ 21:00
Clouds
  • Few at 100' AGL
  • Broken at 300' AGL
Conditions
  • Mist
Becoming Dec-18 @ 03:00 - Dec-18 @ 09:00
Wind Visibility
160° at 8 knots 10,000+ meters
Clouds
  • Few at 300' AGL
  • Broken at 1,500' AGL
Becoming Dec-18 @ 09:00 - Dec-18 @ 18:00
Wind Visibility
280° at 5 knots 10,000+ meters
Clouds
  • Few at 300' AGL
  • Broken at 1,500' AGL